sensor_id;sensor_type;location;lat;lon;timestamp;temperature;humidity
52435;DHT22;38354;52.892;6.148;2023-04-07T03:14:09;7.20;99.90
52435;DHT22;38354;52.892;6.148;2023-04-07T03:46:46;7.30;99.90
52435;DHT22;38354;52.892;6.148;2023-04-07T03:59:41;7.30;99.90
52435;DHT22;38354;52.892;6.148;2023-04-07T04:02:35;7.30;99.90
52435;DHT22;38354;52.892;6.148;2023-04-07T04:15:39;7.30;99.90
52435;DHT22;38354;52.892;6.148;2023-04-07T04:19:08;7.40;99.90
52435;DHT22;38354;52.892;6.148;2023-04-07T04:25:37;7.30;99.90
52435;DHT22;38354;52.892;6.148;2023-04-07T04:40:15;7.40;99.90
52435;DHT22;38354;52.892;6.148;2023-04-07T04:51:34;7.40;99.90
52435;DHT22;38354;52.892;6.148;2023-04-07T04:55:29;7.30;99.90
52435;DHT22;38354;52.892;6.148;2023-04-07T05:09:56;7.40;99.90
52435;DHT22;38354;52.892;6.148;2023-04-07T05:13:09;7.30;99.90
52435;DHT22;38354;52.892;6.148;2023-04-07T05:19:47;7.40;99.90
52435;DHT22;38354;52.892;6.148;2023-04-07T05:55:43;7.30;99.90
52435;DHT22;38354;52.892;6.148;2023-04-07T06:02:08;7.30;99.90
52435;DHT22;38354;52.892;6.148;2023-04-07T06:05:02;7.30;99.90
52435;DHT22;38354;52.892;6.148;2023-04-07T06:07:28;7.30;99.90
52435;DHT22;38354;52.892;6.148;2023-04-07T06:09:53;7.30;99.90
52435;DHT22;38354;52.892;6.148;2023-04-07T06:12:19;7.30;99.90
52435;DHT22;38354;52.892;6.148;2023-04-07T06:14:51;7.40;99.90
52435;DHT22;38354;52.892;6.148;2023-04-07T06:17:17;7.40;99.90
52435;DHT22;38354;52.892;6.148;2023-04-07T06:19:42;7.40;99.90
52435;DHT22;38354;52.892;6.148;2023-04-07T06:22:08;7.30;99.90
52435;DHT22;38354;52.892;6.148;2023-04-07T06:24:34;7.40;99.90
52435;DHT22;38354;52.892;6.148;2023-04-07T06:27:00;7.30;99.90
52435;DHT22;38354;52.892;6.148;2023-04-07T06:29:26;7.30;99.90
52435;DHT22;38354;52.892;6.148;2023-04-07T06:31:52;7.40;99.90
52435;DHT22;38354;52.892;6.148;2023-04-07T06:34:17;7.30;99.90
52435;DHT22;38354;52.892;6.148;2023-04-07T06:36:43;7.30;99.90
52435;DHT22;38354;52.892;6.148;2023-04-07T06:39:08;7.40;99.90
52435;DHT22;38354;52.892;6.148;2023-04-07T06:41:34;7.30;99.90
52435;DHT22;38354;52.892;6.148;2023-04-07T06:44:01;7.30;99.90
52435;DHT22;38354;52.892;6.148;2023-04-07T06:46:26;7.40;99.90
52435;DHT22;38354;52.892;6.148;2023-04-07T06:48:52;7.40;99.90
52435;DHT22;38354;52.892;6.148;2023-04-07T06:51:17;7.40;99.90
52435;DHT22;38354;52.892;6.148;2023-04-07T06:53:43;7.40;99.90
52435;DHT22;38354;52.892;6.148;2023-04-07T06:56:10;7.40;99.90
52435;DHT22;38354;52.892;6.148;2023-04-07T06:58:37;7.40;99.90
52435;DHT22;38354;52.892;6.148;2023-04-07T07:01:03;7.40;99.90
52435;DHT22;38354;52.892;6.148;2023-04-07T07:03:30;7.40;99.90
52435;DHT22;38354;52.892;6.148;2023-04-07T07:05:59;7.40;99.90
52435;DHT22;38354;52.892;6.148;2023-04-07T07:08:26;7.40;99.90
52435;DHT22;38354;52.892;6.148;2023-04-07T07:10:52;7.40;99.90
52435;DHT22;38354;52.892;6.148;2023-04-07T07:13:19;7.40;99.90
52435;DHT22;38354;52.892;6.148;2023-04-07T07:15:45;7.40;99.90
52435;DHT22;38354;52.892;6.148;2023-04-07T07:18:11;7.40;99.90
52435;DHT22;38354;52.892;6.148;2023-04-07T07:20:37;7.40;99.90
52435;DHT22;38354;52.892;6.148;2023-04-07T07:23:02;7.40;99.90
52435;DHT22;38354;52.892;6.148;2023-04-07T07:25:28;7.40;99.90
52435;DHT22;38354;52.892;6.148;2023-04-07T07:27:54;7.50;99.90
52435;DHT22;38354;52.892;6.148;2023-04-07T07:30:20;7.40;99.90
52435;DHT22;38354;52.892;6.148;2023-04-07T07:32:47;7.40;99.90
52435;DHT22;38354;52.892;6.148;2023-04-07T07:35:13;7.40;99.90
52435;DHT22;38354;52.892;6.148;2023-04-07T07:37:39;7.50;99.90
52435;DHT22;38354;52.892;6.148;2023-04-07T07:40:05;7.50;99.90
52435;DHT22;38354;52.892;6.148;2023-04-07T07:42:30;7.50;99.90
52435;DHT22;38354;52.892;6.148;2023-04-07T07:44:57;7.50;99.90
52435;DHT22;38354;52.892;6.148;2023-04-07T07:47:22;7.60;99.90
52435;DHT22;38354;52.892;6.148;2023-04-07T07:49:48;7.70;99.90
52435;DHT22;38354;52.892;6.148;2023-04-07T07:52:14;7.60;99.90
52435;DHT22;38354;52.892;6.148;2023-04-07T07:54:40;7.70;99.90
52435;DHT22;38354;52.892;6.148;2023-04-07T07:57:05;7.70;99.90
52435;DHT22;38354;52.892;6.148;2023-04-07T07:59:31;7.80;99.90
52435;DHT22;38354;52.892;6.148;2023-04-07T08:01:57;7.80;99.90
52435;DHT22;38354;52.892;6.148;2023-04-07T08:04:23;7.90;99.90
52435;DHT22;38354;52.892;6.148;2023-04-07T08:06:49;7.90;99.90
52435;DHT22;38354;52.892;6.148;2023-04-07T08:09:16;8.00;99.90
52435;DHT22;38354;52.892;6.148;2023-04-07T08:11:42;8.00;99.90
52435;DHT22;38354;52.892;6.148;2023-04-07T08:14:08;8.00;99.90
52435;DHT22;38354;52.892;6.148;2023-04-07T08:16:34;8.00;99.90
52435;DHT22;38354;52.892;6.148;2023-04-07T08:19:00;7.90;99.90
52435;DHT22;38354;52.892;6.148;2023-04-07T08:21:26;7.90;99.90
52435;DHT22;38354;52.892;6.148;2023-04-07T08:23:53;8.00;99.90
52435;DHT22;38354;52.892;6.148;2023-04-07T08:26:19;8.00;99.90
52435;DHT22;38354;52.892;6.148;2023-04-07T08:28:46;7.90;99.90
52435;DHT22;38354;52.892;6.148;2023-04-07T08:31:12;7.90;99.90
52435;DHT22;38354;52.892;6.148;2023-04-07T08:33:37;7.90;99.90
52435;DHT22;38354;52.892;6.148;2023-04-07T08:36:03;8.00;99.90
52435;DHT22;38354;52.892;6.148;2023-04-07T08:38:29;7.90;99.90
52435;DHT22;38354;52.892;6.148;2023-04-07T08:41:38;7.90;99.90
52435;DHT22;38354;52.892;6.148;2023-04-07T08:44:04;7.90;99.90
52435;DHT22;38354;52.892;6.148;2023-04-07T08:46:32;8.00;99.90
52435;DHT22;38354;52.892;6.148;2023-04-07T08:48:58;8.00;99.90
52435;DHT22;38354;52.892;6.148;2023-04-07T08:51:30;8.00;99.90
52435;DHT22;38354;52.892;6.148;2023-04-07T08:54:04;8.00;99.90
52435;DHT22;38354;52.892;6.148;2023-04-07T08:56:36;8.00;99.90
52435;DHT22;38354;52.892;6.148;2023-04-07T08:59:04;8.00;99.90
52435;DHT22;38354;52.892;6.148;2023-04-07T09:01:30;8.10;99.90
52435;DHT22;38354;52.892;6.148;2023-04-07T09:03:56;8.10;99.90
52435;DHT22;38354;52.892;6.148;2023-04-07T09:06:23;8.10;99.90
52435;DHT22;38354;52.892;6.148;2023-04-07T09:08:49;8.20;99.90
52435;DHT22;38354;52.892;6.148;2023-04-07T09:11:14;8.20;99.90
52435;DHT22;38354;52.892;6.148;2023-04-07T09:13:40;8.20;99.90
52435;DHT22;38354;52.892;6.148;2023-04-07T09:16:06;8.20;99.90
52435;DHT22;38354;52.892;6.148;2023-04-07T09:18:32;8.20;99.90
52435;DHT22;38354;52.892;6.148;2023-04-07T09:21:03;8.30;99.90
52435;DHT22;38354;52.892;6.148;2023-04-07T09:23:37;8.40;99.90
52435;DHT22;38354;52.892;6.148;2023-04-07T09:26:26;8.40;99.90
52435;DHT22;38354;52.892;6.148;2023-04-07T09:31:19;8.50;99.90
52435;DHT22;38354;52.892;6.148;2023-04-07T09:33:47;8.60;99.90
52435;DHT22;38354;52.892;6.148;2023-04-07T09:36:13;8.60;99.90
52435;DHT22;38354;52.892;6.148;2023-04-07T09:38:39;8.70;99.90
52435;DHT22;38354;52.892;6.148;2023-04-07T09:41:15;8.60;99.90
52435;DHT22;38354;52.892;6.148;2023-04-07T09:43:45;8.60;99.90
52435;DHT22;38354;52.892;6.148;2023-04-07T09:46:16;8.60;99.90
52435;DHT22;38354;52.892;6.148;2023-04-07T09:48:44;8.60;99.90
52435;DHT22;38354;52.892;6.148;2023-04-07T09:51:15;8.70;99.90
52435;DHT22;38354;52.892;6.148;2023-04-07T09:53:48;8.70;99.90
52435;DHT22;38354;52.892;6.148;2023-04-07T09:56:18;8.80;99.90
52435;DHT22;38354;52.892;6.148;2023-04-07T09:58:47;8.80;99.90
52435;DHT22;38354;52.892;6.148;2023-04-07T10:01:14;8.90;99.90
52435;DHT22;38354;52.892;6.148;2023-04-07T10:03:44;8.90;99.90
52435;DHT22;38354;52.892;6.148;2023-04-07T10:06:12;8.90;99.90
52435;DHT22;38354;52.892;6.148;2023-04-07T10:08:40;9.10;99.90
52435;DHT22;38354;52.892;6.148;2023-04-07T10:11:06;9.10;99.90
52435;DHT22;38354;52.892;6.148;2023-04-07T10:13:34;9.20;99.90
52435;DHT22;38354;52.892;6.148;2023-04-07T10:16:03;9.20;99.90
52435;DHT22;38354;52.892;6.148;2023-04-07T10:18:29;9.20;99.90
52435;DHT22;38354;52.892;6.148;2023-04-07T10:20:56;9.20;99.90
52435;DHT22;38354;52.892;6.148;2023-04-07T10:23:31;9.30;99.90
52435;DHT22;38354;52.892;6.148;2023-04-07T10:25:59;9.40;99.90
52435;DHT22;38354;52.892;6.148;2023-04-07T10:28:26;9.30;99.90
52435;DHT22;38354;52.892;6.148;2023-04-07T10:30:54;9.30;99.90
52435;DHT22;38354;52.892;6.148;2023-04-07T10:36:13;9.30;99.90
52435;DHT22;38354;52.892;6.148;2023-04-07T10:38:38;9.20;99.90
52435;DHT22;38354;52.892;6.148;2023-04-07T10:41:45;9.30;99.90
52435;DHT22;38354;52.892;6.148;2023-04-07T10:47:06;9.50;99.90
52435;DHT22;38354;52.892;6.148;2023-04-07T10:49:32;9.60;99.90
52435;DHT22;38354;52.892;6.148;2023-04-07T10:54:37;9.70;99.90
52435;DHT22;38354;52.892;6.148;2023-04-07T10:57:10;9.80;99.90
52435;DHT22;38354;52.892;6.148;2023-04-07T10:59:38;9.80;99.90
52435;DHT22;38354;52.892;6.148;2023-04-07T11:04:41;9.90;99.90
52435;DHT22;38354;52.892;6.148;2023-04-07T11:07:07;10.00;99.90
52435;DHT22;38354;52.892;6.148;2023-04-07T11:09:33;10.00;99.90
52435;DHT22;38354;52.892;6.148;2023-04-07T11:11:59;10.10;99.90
52435;DHT22;38354;52.892;6.148;2023-04-07T11:14:26;10.20;99.90
52435;DHT22;38354;52.892;6.148;2023-04-07T11:16:52;10.20;99.90
52435;DHT22;38354;52.892;6.148;2023-04-07T11:19:18;10.30;99.90
52435;DHT22;38354;52.892;6.148;2023-04-07T11:21:44;10.30;99.90
52435;DHT22;38354;52.892;6.148;2023-04-07T11:24:09;10.40;99.90
52435;DHT22;38354;52.892;6.148;2023-04-07T11:26:40;10.50;99.90
52435;DHT22;38354;52.892;6.148;2023-04-07T11:29:06;10.50;99.90
52435;DHT22;38354;52.892;6.148;2023-04-07T11:31:32;10.60;99.90
52435;DHT22;38354;52.892;6.148;2023-04-07T11:34:03;10.60;99.90
52435;DHT22;38354;52.892;6.148;2023-04-07T11:36:34;10.60;99.90
52435;DHT22;38354;52.892;6.148;2023-04-07T11:39:01;10.60;99.90
52435;DHT22;38354;52.892;6.148;2023-04-07T11:41:30;10.60;99.90
52435;DHT22;38354;52.892;6.148;2023-04-07T11:44:10;10.60;99.90
52435;DHT22;38354;52.892;6.148;2023-04-07T11:46:52;10.50;99.90
52435;DHT22;38354;52.892;6.148;2023-04-07T11:49:19;10.50;99.90
52435;DHT22;38354;52.892;6.148;2023-04-07T11:51:45;10.60;99.90
52435;DHT22;38354;52.892;6.148;2023-04-07T11:54:11;10.70;99.90
52435;DHT22;38354;52.892;6.148;2023-04-07T11:56:45;10.70;99.90
52435;DHT22;38354;52.892;6.148;2023-04-07T11:59:21;10.50;99.90
52435;DHT22;38354;52.892;6.148;2023-04-07T12:01:48;10.60;99.90
52435;DHT22;38354;52.892;6.148;2023-04-07T12:04:15;10.70;99.90
52435;DHT22;38354;52.892;6.148;2023-04-07T12:06:42;10.90;99.90
52435;DHT22;38354;52.892;6.148;2023-04-07T12:09:09;10.90;99.90
52435;DHT22;38354;52.892;6.148;2023-04-07T12:11:49;11.00;99.90
52435;DHT22;38354;52.892;6.148;2023-04-07T12:14:14;11.00;99.90
52435;DHT22;38354;52.892;6.148;2023-04-07T12:16:40;10.80;99.90
52435;DHT22;38354;52.892;6.148;2023-04-07T12:19:07;10.80;99.90
52435;DHT22;38354;52.892;6.148;2023-04-07T12:21:32;10.90;99.90
52435;DHT22;38354;52.892;6.148;2023-04-07T12:23:58;10.80;99.90
52435;DHT22;38354;52.892;6.148;2023-04-07T12:26:24;10.80;99.90
52435;DHT22;38354;52.892;6.148;2023-04-07T12:28:50;10.70;99.90
52435;DHT22;38354;52.892;6.148;2023-04-07T12:31:15;10.70;99.90
52435;DHT22;38354;52.892;6.148;2023-04-07T12:33:41;10.60;99.90
52435;DHT22;38354;52.892;6.148;2023-04-07T12:36:07;10.70;99.90
52435;DHT22;38354;52.892;6.148;2023-04-07T12:38:32;10.70;99.90
52435;DHT22;38354;52.892;6.148;2023-04-07T12:40:58;10.60;99.90
52435;DHT22;38354;52.892;6.148;2023-04-07T12:43:29;10.50;99.90
52435;DHT22;38354;52.892;6.148;2023-04-07T12:45:55;10.40;99.90
52435;DHT22;38354;52.892;6.148;2023-04-07T12:48:20;10.40;99.90
52435;DHT22;38354;52.892;6.148;2023-04-07T12:50:46;10.50;99.90
52435;DHT22;38354;52.892;6.148;2023-04-07T12:53:11;10.50;99.90
52435;DHT22;38354;52.892;6.148;2023-04-07T12:55:37;10.60;99.90
52435;DHT22;38354;52.892;6.148;2023-04-07T12:58:03;10.70;99.90
52435;DHT22;38354;52.892;6.148;2023-04-07T13:00:29;10.80;99.90
52435;DHT22;38354;52.892;6.148;2023-04-07T13:02:55;10.80;99.90
52435;DHT22;38354;52.892;6.148;2023-04-07T13:05:21;10.90;99.90
52435;DHT22;38354;52.892;6.148;2023-04-07T13:07:48;10.90;99.90
52435;DHT22;38354;52.892;6.148;2023-04-07T13:10:13;10.90;99.90
52435;DHT22;38354;52.892;6.148;2023-04-07T13:12:39;11.00;99.90
52435;DHT22;38354;52.892;6.148;2023-04-07T13:15:07;11.00;99.90
52435;DHT22;38354;52.892;6.148;2023-04-07T13:17:33;11.00;99.90
52435;DHT22;38354;52.892;6.148;2023-04-07T13:20:04;10.90;99.90
52435;DHT22;38354;52.892;6.148;2023-04-07T13:22:31;10.90;99.90
52435;DHT22;38354;52.892;6.148;2023-04-07T13:24:57;10.80;99.90
52435;DHT22;38354;52.892;6.148;2023-04-07T13:27:22;10.80;99.90
52435;DHT22;38354;52.892;6.148;2023-04-07T13:29:48;10.80;99.90
52435;DHT22;38354;52.892;6.148;2023-04-07T13:32:14;10.80;99.90
52435;DHT22;38354;52.892;6.148;2023-04-07T13:34:40;10.70;99.90
52435;DHT22;38354;52.892;6.148;2023-04-07T13:37:06;10.70;99.90
52435;DHT22;38354;52.892;6.148;2023-04-07T13:39:32;10.70;99.90
52435;DHT22;38354;52.892;6.148;2023-04-07T13:41:58;10.60;99.90
52435;DHT22;38354;52.892;6.148;2023-04-07T13:44:25;10.60;99.90
52435;DHT22;38354;52.892;6.148;2023-04-07T13:46:52;10.50;99.90
52435;DHT22;38354;52.892;6.148;2023-04-07T13:49:17;10.50;99.90
52435;DHT22;38354;52.892;6.148;2023-04-07T13:51:43;10.60;99.90
52435;DHT22;38354;52.892;6.148;2023-04-07T13:54:09;10.60;99.90
52435;DHT22;38354;52.892;6.148;2023-04-07T13:56:35;10.50;99.90
52435;DHT22;38354;52.892;6.148;2023-04-07T13:59:06;10.50;99.90
52435;DHT22;38354;52.892;6.148;2023-04-07T14:01:32;10.50;99.90
52435;DHT22;38354;52.892;6.148;2023-04-07T14:04:02;10.50;99.90
52435;DHT22;38354;52.892;6.148;2023-04-07T14:06:28;10.50;99.90
52435;DHT22;38354;52.892;6.148;2023-04-07T14:08:54;10.50;99.90
52435;DHT22;38354;52.892;6.148;2023-04-07T14:11:20;10.50;99.90
52435;DHT22;38354;52.892;6.148;2023-04-07T14:13:49;10.50;99.90
52435;DHT22;38354;52.892;6.148;2023-04-07T14:16:16;10.50;99.90
52435;DHT22;38354;52.892;6.148;2023-04-07T14:18:43;10.50;99.90
52435;DHT22;38354;52.892;6.148;2023-04-07T14:21:08;10.50;99.90
52435;DHT22;38354;52.892;6.148;2023-04-07T14:23:34;10.50;99.90
52435;DHT22;38354;52.892;6.148;2023-04-07T14:26:00;10.50;99.90
52435;DHT22;38354;52.892;6.148;2023-04-07T14:28:26;10.60;99.90
52435;DHT22;38354;52.892;6.148;2023-04-07T14:30:53;10.60;99.90
52435;DHT22;38354;52.892;6.148;2023-04-07T14:33:21;10.60;99.90
52435;DHT22;38354;52.892;6.148;2023-04-07T14:35:47;10.60;99.90
52435;DHT22;38354;52.892;6.148;2023-04-07T14:38:13;10.60;99.90
52435;DHT22;38354;52.892;6.148;2023-04-07T14:40:40;10.70;99.90
52435;DHT22;38354;52.892;6.148;2023-04-07T14:43:06;10.70;99.90
52435;DHT22;38354;52.892;6.148;2023-04-07T14:45:32;10.70;99.90
52435;DHT22;38354;52.892;6.148;2023-04-07T14:47:59;10.70;99.90
52435;DHT22;38354;52.892;6.148;2023-04-07T14:50:24;10.60;99.90
52435;DHT22;38354;52.892;6.148;2023-04-07T14:52:50;10.60;99.90
52435;DHT22;38354;52.892;6.148;2023-04-07T14:55:16;10.50;99.90
52435;DHT22;38354;52.892;6.148;2023-04-07T14:57:42;10.60;99.90
52435;DHT22;38354;52.892;6.148;2023-04-07T15:00:08;10.60;99.90
52435;DHT22;38354;52.892;6.148;2023-04-07T15:02:35;10.60;99.90
52435;DHT22;38354;52.892;6.148;2023-04-07T15:05:01;10.60;99.90
52435;DHT22;38354;52.892;6.148;2023-04-07T15:07:27;10.70;99.90
52435;DHT22;38354;52.892;6.148;2023-04-07T15:09:52;10.70;99.90
52435;DHT22;38354;52.892;6.148;2023-04-07T15:12:18;10.70;99.90
52435;DHT22;38354;52.892;6.148;2023-04-07T15:14:44;10.70;99.90
52435;DHT22;38354;52.892;6.148;2023-04-07T15:17:12;10.80;99.90
52435;DHT22;38354;52.892;6.148;2023-04-07T15:19:38;10.80;99.90
52435;DHT22;38354;52.892;6.148;2023-04-07T15:22:04;10.80;99.90
52435;DHT22;38354;52.892;6.148;2023-04-07T15:24:29;10.80;99.90
52435;DHT22;38354;52.892;6.148;2023-04-07T15:26:55;10.80;99.90
52435;DHT22;38354;52.892;6.148;2023-04-07T15:29:20;10.80;99.90
52435;DHT22;38354;52.892;6.148;2023-04-07T15:31:46;10.80;99.90
52435;DHT22;38354;52.892;6.148;2023-04-07T15:34:12;10.80;99.90
52435;DHT22;38354;52.892;6.148;2023-04-07T15:36:38;10.80;99.90
52435;DHT22;38354;52.892;6.148;2023-04-07T15:39:04;10.70;99.90
52435;DHT22;38354;52.892;6.148;2023-04-07T15:41:31;10.70;99.90
52435;DHT22;38354;52.892;6.148;2023-04-07T15:44:01;10.80;99.90
52435;DHT22;38354;52.892;6.148;2023-04-07T15:46:27;10.80;99.90
52435;DHT22;38354;52.892;6.148;2023-04-07T15:48:53;10.80;99.90
52435;DHT22;38354;52.892;6.148;2023-04-07T15:51:19;10.90;99.90
52435;DHT22;38354;52.892;6.148;2023-04-07T15:53:45;10.90;99.90
52435;DHT22;38354;52.892;6.148;2023-04-07T15:56:11;10.90;99.90
52435;DHT22;38354;52.892;6.148;2023-04-07T15:58:37;10.90;99.90
52435;DHT22;38354;52.892;6.148;2023-04-07T16:01:03;10.90;99.90
52435;DHT22;38354;52.892;6.148;2023-04-07T16:03:29;10.90;99.90
52435;DHT22;38354;52.892;6.148;2023-04-07T16:05:57;10.90;99.90
52435;DHT22;38354;52.892;6.148;2023-04-07T16:08:23;10.90;99.90
52435;DHT22;38354;52.892;6.148;2023-04-07T16:10:49;11.00;99.90
52435;DHT22;38354;52.892;6.148;2023-04-07T16:13:14;10.90;99.90
52435;DHT22;38354;52.892;6.148;2023-04-07T16:15:40;11.00;99.90
52435;DHT22;38354;52.892;6.148;2023-04-07T16:18:09;11.00;99.90
52435;DHT22;38354;52.892;6.148;2023-04-07T16:20:35;11.00;99.90
52435;DHT22;38354;52.892;6.148;2023-04-07T16:23:01;11.00;99.90
52435;DHT22;38354;52.892;6.148;2023-04-07T16:25:26;11.00;99.90
52435;DHT22;38354;52.892;6.148;2023-04-07T16:27:52;11.00;99.90
52435;DHT22;38354;52.892;6.148;2023-04-07T16:30:18;11.00;99.90
52435;DHT22;38354;52.892;6.148;2023-04-07T16:32:44;11.10;99.90
52435;DHT22;38354;52.892;6.148;2023-04-07T16:35:12;11.20;99.90
52435;DHT22;38354;52.892;6.148;2023-04-07T16:37:38;11.30;99.90
52435;DHT22;38354;52.892;6.148;2023-04-07T16:40:07;11.30;99.90
52435;DHT22;38354;52.892;6.148;2023-04-07T16:42:33;11.30;99.90
52435;DHT22;38354;52.892;6.148;2023-04-07T16:44:59;11.40;99.90
52435;DHT22;38354;52.892;6.148;2023-04-07T16:47:29;11.40;99.90
52435;DHT22;38354;52.892;6.148;2023-04-07T16:49:55;11.40;99.90
52435;DHT22;38354;52.892;6.148;2023-04-07T16:52:21;11.40;99.90
52435;DHT22;38354;52.892;6.148;2023-04-07T16:54:47;11.40;99.90
52435;DHT22;38354;52.892;6.148;2023-04-07T16:57:13;11.40;99.90
52435;DHT22;38354;52.892;6.148;2023-04-07T16:59:39;11.40;99.90
52435;DHT22;38354;52.892;6.148;2023-04-07T17:02:06;11.40;99.90
52435;DHT22;38354;52.892;6.148;2023-04-07T17:04:32;11.50;99.90
52435;DHT22;38354;52.892;6.148;2023-04-07T17:06:58;11.60;99.90
52435;DHT22;38354;52.892;6.148;2023-04-07T17:09:24;11.60;99.90
52435;DHT22;38354;52.892;6.148;2023-04-07T17:11:49;11.60;99.90
52435;DHT22;38354;52.892;6.148;2023-04-07T17:14:15;11.60;99.90
52435;DHT22;38354;52.892;6.148;2023-04-07T17:16:41;11.50;99.90
52435;DHT22;38354;52.892;6.148;2023-04-07T17:19:07;11.50;99.90
52435;DHT22;38354;52.892;6.148;2023-04-07T17:21:32;11.40;99.90
52435;DHT22;38354;52.892;6.148;2023-04-07T17:23:58;11.40;99.90
52435;DHT22;38354;52.892;6.148;2023-04-07T17:26:23;11.30;99.90
52435;DHT22;38354;52.892;6.148;2023-04-07T17:28:50;11.30;99.90
52435;DHT22;38354;52.892;6.148;2023-04-07T17:31:16;11.30;99.90
52435;DHT22;38354;52.892;6.148;2023-04-07T17:33:42;11.20;99.90
52435;DHT22;38354;52.892;6.148;2023-04-07T17:36:07;11.10;99.90
52435;DHT22;38354;52.892;6.148;2023-04-07T17:38:33;11.10;99.90
52435;DHT22;38354;52.892;6.148;2023-04-07T17:40:59;11.10;99.90
52435;DHT22;38354;52.892;6.148;2023-04-07T17:43:26;11.10;99.90
52435;DHT22;38354;52.892;6.148;2023-04-07T17:45:53;11.00;99.90
52435;DHT22;38354;52.892;6.148;2023-04-07T17:48:19;10.90;99.90
52435;DHT22;38354;52.892;6.148;2023-04-07T17:50:46;10.90;99.90
52435;DHT22;38354;52.892;6.148;2023-04-07T17:53:12;10.90;99.90
52435;DHT22;38354;52.892;6.148;2023-04-07T17:55:38;10.80;99.90
52435;DHT22;38354;52.892;6.148;2023-04-07T17:58:05;10.70;99.90
52435;DHT22;38354;52.892;6.148;2023-04-07T18:00:31;10.70;99.90
52435;DHT22;38354;52.892;6.148;2023-04-07T18:02:57;10.70;99.90
52435;DHT22;38354;52.892;6.148;2023-04-07T18:05:23;10.60;99.90
52435;DHT22;38354;52.892;6.148;2023-04-07T18:07:49;10.60;99.90
52435;DHT22;38354;52.892;6.148;2023-04-07T18:10:15;10.60;99.90
52435;DHT22;38354;52.892;6.148;2023-04-07T18:12:45;10.50;99.90
52435;DHT22;38354;52.892;6.148;2023-04-07T18:15:11;10.50;99.90
52435;DHT22;38354;52.892;6.148;2023-04-07T18:17:37;10.50;99.90
52435;DHT22;38354;52.892;6.148;2023-04-07T18:20:03;10.40;99.90
52435;DHT22;38354;52.892;6.148;2023-04-07T18:22:30;10.40;99.90
52435;DHT22;38354;52.892;6.148;2023-04-07T18:24:56;10.30;99.90
52435;DHT22;38354;52.892;6.148;2023-04-07T18:27:22;10.30;99.90
52435;DHT22;38354;52.892;6.148;2023-04-07T18:29:53;10.20;99.90
52435;DHT22;38354;52.892;6.148;2023-04-07T18:32:18;10.20;99.90
52435;DHT22;38354;52.892;6.148;2023-04-07T18:34:47;10.10;99.90
52435;DHT22;38354;52.892;6.148;2023-04-07T18:37:13;10.10;99.90
52435;DHT22;38354;52.892;6.148;2023-04-07T18:39:38;10.10;99.90
52435;DHT22;38354;52.892;6.148;2023-04-07T18:42:04;10.10;99.90
52435;DHT22;38354;52.892;6.148;2023-04-07T18:44:30;10.00;99.90
52435;DHT22;38354;52.892;6.148;2023-04-07T18:46:56;10.00;99.90
52435;DHT22;38354;52.892;6.148;2023-04-07T18:49:21;10.00;99.90
52435;DHT22;38354;52.892;6.148;2023-04-07T18:51:47;9.90;99.90
52435;DHT22;38354;52.892;6.148;2023-04-07T18:54:13;9.90;99.90
52435;DHT22;38354;52.892;6.148;2023-04-07T18:56:38;9.90;99.90
52435;DHT22;38354;52.892;6.148;2023-04-07T18:59:04;9.90;99.90
52435;DHT22;38354;52.892;6.148;2023-04-07T19:01:35;9.80;99.90
52435;DHT22;38354;52.892;6.148;2023-04-07T19:04:00;9.80;99.90
52435;DHT22;38354;52.892;6.148;2023-04-07T19:06:26;9.80;99.90
52435;DHT22;38354;52.892;6.148;2023-04-07T19:08:54;9.80;99.90
52435;DHT22;38354;52.892;6.148;2023-04-07T19:11:20;9.70;99.90
52435;DHT22;38354;52.892;6.148;2023-04-07T19:13:46;9.60;99.90
52435;DHT22;38354;52.892;6.148;2023-04-07T19:16:13;9.60;99.90
52435;DHT22;38354;52.892;6.148;2023-04-07T19:18:39;9.60;99.90
52435;DHT22;38354;52.892;6.148;2023-04-07T19:21:05;9.60;99.90
52435;DHT22;38354;52.892;6.148;2023-04-07T19:23:32;9.60;99.90
52435;DHT22;38354;52.892;6.148;2023-04-07T19:25:58;9.60;99.90
52435;DHT22;38354;52.892;6.148;2023-04-07T19:28:25;9.60;99.90
52435;DHT22;38354;52.892;6.148;2023-04-07T19:30:51;9.60;99.90
52435;DHT22;38354;52.892;6.148;2023-04-07T19:33:16;9.50;99.90
52435;DHT22;38354;52.892;6.148;2023-04-07T19:35:42;9.50;99.90
52435;DHT22;38354;52.892;6.148;2023-04-07T19:38:08;9.50;99.90
52435;DHT22;38354;52.892;6.148;2023-04-07T19:40:35;9.50;99.90
52435;DHT22;38354;52.892;6.148;2023-04-07T19:43:00;9.40;99.90
52435;DHT22;38354;52.892;6.148;2023-04-07T19:45:26;9.40;99.90
52435;DHT22;38354;52.892;6.148;2023-04-07T19:47:52;9.30;99.90
52435;DHT22;38354;52.892;6.148;2023-04-07T19:50:18;9.20;99.90
52435;DHT22;38354;52.892;6.148;2023-04-07T19:52:44;9.20;99.90
52435;DHT22;38354;52.892;6.148;2023-04-07T19:55:13;9.20;99.90
52435;DHT22;38354;52.892;6.148;2023-04-07T19:57:39;9.20;99.90
52435;DHT22;38354;52.892;6.148;2023-04-07T20:00:06;9.10;99.90
52435;DHT22;38354;52.892;6.148;2023-04-07T20:02:33;9.10;99.90
52435;DHT22;38354;52.892;6.148;2023-04-07T20:04:59;9.00;99.90
52435;DHT22;38354;52.892;6.148;2023-04-07T20:07:24;8.80;99.90
52435;DHT22;38354;52.892;6.148;2023-04-07T20:09:51;8.80;99.90
52435;DHT22;38354;52.892;6.148;2023-04-07T20:12:19;8.70;99.90
52435;DHT22;38354;52.892;6.148;2023-04-07T20:14:45;8.70;99.90
52435;DHT22;38354;52.892;6.148;2023-04-07T20:17:10;8.60;99.90
52435;DHT22;38354;52.892;6.148;2023-04-07T20:19:36;8.50;99.90
52435;DHT22;38354;52.892;6.148;2023-04-07T20:22:03;8.40;99.90
52435;DHT22;38354;52.892;6.148;2023-04-07T20:24:29;8.40;99.90
52435;DHT22;38354;52.892;6.148;2023-04-07T20:26:55;8.40;99.90
52435;DHT22;38354;52.892;6.148;2023-04-07T20:29:22;8.30;99.90
52435;DHT22;38354;52.892;6.148;2023-04-07T20:31:47;8.20;99.90
52435;DHT22;38354;52.892;6.148;2023-04-07T20:34:13;8.20;99.90
52435;DHT22;38354;52.892;6.148;2023-04-07T20:36:38;8.00;99.90
52435;DHT22;38354;52.892;6.148;2023-04-07T20:39:04;8.00;99.90
52435;DHT22;38354;52.892;6.148;2023-04-07T20:41:30;7.90;99.90
52435;DHT22;38354;52.892;6.148;2023-04-07T20:43:55;7.80;99.90
52435;DHT22;38354;52.892;6.148;2023-04-07T20:46:21;7.80;99.90
52435;DHT22;38354;52.892;6.148;2023-04-07T20:48:47;7.70;99.90
52435;DHT22;38354;52.892;6.148;2023-04-07T20:51:12;7.60;99.90
52435;DHT22;38354;52.892;6.148;2023-04-07T20:53:39;7.50;99.90
52435;DHT22;38354;52.892;6.148;2023-04-07T20:56:05;7.50;99.90
52435;DHT22;38354;52.892;6.148;2023-04-07T20:58:30;7.40;99.90
52435;DHT22;38354;52.892;6.148;2023-04-07T21:00:57;7.40;99.90
52435;DHT22;38354;52.892;6.148;2023-04-07T21:03:27;7.30;99.90
52435;DHT22;38354;52.892;6.148;2023-04-07T21:05:53;7.20;99.90
52435;DHT22;38354;52.892;6.148;2023-04-07T21:08:20;7.20;99.90
52435;DHT22;38354;52.892;6.148;2023-04-07T21:10:50;7.10;99.90
52435;DHT22;38354;52.892;6.148;2023-04-07T21:13:17;7.10;99.90
52435;DHT22;38354;52.892;6.148;2023-04-07T21:15:43;7.00;99.90